Mormon Lake, AZ (86038)

7:46 AM MST on September 26, 2016 (GMT -0700)
Munds Park - Reindeer | | Change Station

Elev 6618 ft 34.94 °N, 111.63 °W | Updated 1 minute ago

Clear
Clear
53.4 °F
Feels Like 53.4 °F
N
2.0
Wind Variable Wind from NE
Gusts 7.0 mph

Today
High -- | Low -- °F
--% Chance of Precip.
Yesterday
High -- | Low -- °F
Precip. -- in
Pressure 30.26 in
Visibility 10.0 miles
Clouds Clear
Dew Point 36 °F
Humidity 51%
Rainfall 0.00 in
Snow Depth Not available.
6:17 AM 6:15 PM
Waning Crescent, 18% visible
METAR KFLG 261357Z 06010KT 10SM CLR 10/01 A3046 RMK AO2 SLP245 T01000006
Pressure 30.26 in
Visibility 10.0 miles
Clouds Clear
Dew Point 36 °F
Humidity 51%
Rainfall 0.00 in
Snow Depth Not available.
6:17 AM 6:15 PM
Waning Crescent, 18% visible
METAR KFLG 261357Z 06010KT 10SM CLR 10/01 A3046 RMK AO2 SLP245 T01000006

10-Day Weather Forecast

Almanac

Astronomy

Sep. 26, 2016 Rise Set
Actual Time
Civil Twilight
Nautical Twilight
Astronomical Twilight
Moon
Length of Visible Light
Length of Day
Tomorrow will be .
, % of the Moon is Illuminated

Today's Extremes

State Highs State Lows

Community

WunderPhotos

Upload Photos

1,941,887 photos uploaded!

WunderBlog® & News

Nearby

Air Quality

  Air Quality AQ Index Pollutant
Not available.

Snow Depth

Station Depth Elevation

Earthquake Activity

City Distance Mag. Time & Date
Minimum magnitude displayed is 2.5.

Coastal Water Temperatures

Place Temperature

Stations

Nearby Weather Stations

Station Location Temp. Windchill Dew Point Humidity Wind Precip. Elev Updated Type
                   

Watches & Warnings

There are currently no watches in effect.